createdAt,value
2022-11-12T00:00:50.102Z,3.92
2022-11-12T00:03:16.848Z,6.05
2022-11-12T00:05:45.232Z,4.78
2022-11-12T00:08:11.871Z,3.47
2022-11-12T00:10:38.957Z,4.40
2022-11-12T00:13:06.286Z,4.18
2022-11-12T00:15:33.103Z,5.88
2022-11-12T00:17:59.767Z,4.38
2022-11-12T00:20:26.396Z,2.80
2022-11-12T00:22:53.062Z,4.60
2022-11-12T00:25:19.774Z,4.72
2022-11-12T00:27:46.524Z,2.60
2022-11-12T00:30:13.392Z,2.97
2022-11-12T00:32:40.293Z,3.00
2022-11-12T00:35:12.447Z,2.35
2022-11-12T00:37:40.329Z,4.82
2022-11-12T00:40:07.788Z,2.80
2022-11-12T00:42:34.424Z,5.03
2022-11-12T00:45:01.064Z,2.85
2022-11-12T00:47:28.081Z,2.88
2022-11-12T00:49:54.754Z,3.72
2022-11-12T00:52:21.597Z,3.17
2022-11-12T00:54:49.148Z,3.42
2022-11-12T00:57:15.786Z,2.75
2022-11-12T00:59:42.528Z,2.20
2022-11-12T01:02:09.476Z,3.67
2022-11-12T01:04:36.120Z,2.13
2022-11-12T01:07:02.809Z,1.48
2022-11-12T01:09:29.591Z,3.85
2022-11-12T01:11:56.441Z,2.92
2022-11-12T01:14:23.179Z,2.22
2022-11-12T01:16:50.224Z,1.40
2022-11-12T01:19:16.928Z,1.67
2022-11-12T01:21:44.420Z,1.98
2022-11-12T01:24:11.492Z,3.67
2022-11-12T01:26:39.139Z,5.30
2022-11-12T01:29:06.381Z,2.63
2022-11-12T01:31:35.181Z,2.33
2022-11-12T01:34:04.671Z,4.97
2022-11-12T01:36:34.386Z,1.45
2022-11-12T01:39:01.329Z,1.75
2022-11-12T01:41:30.828Z,4.70
2022-11-12T01:44:21.028Z,2.28
2022-11-12T01:46:59.573Z,1.48
2022-11-12T01:49:30.428Z,4.82
2022-11-12T01:51:59.464Z,3.05
2022-11-12T01:54:26.532Z,4.78
2022-11-12T01:56:53.419Z,2.65
2022-11-12T01:59:27.472Z,2.17
2022-11-12T02:01:54.250Z,2.35
2022-11-12T02:04:21.114Z,2.75
2022-11-12T02:06:48.605Z,3.38
2022-11-12T02:09:15.388Z,4.35
2022-11-12T02:11:41.959Z,1.85
2022-11-12T02:14:08.649Z,2.92
2022-11-12T02:16:43.617Z,2.72
2022-11-12T02:19:12.672Z,3.13
2022-11-12T02:21:39.633Z,3.00
2022-11-12T02:24:12.334Z,2.42
2022-11-12T02:26:42.117Z,2.63
2022-11-12T02:29:09.226Z,2.47
2022-11-12T02:31:36.356Z,3.25
2022-11-12T02:34:03.043Z,2.22
2022-11-12T02:36:30.087Z,2.15
2022-11-12T02:38:56.869Z,4.15
2022-11-12T02:41:23.741Z,1.77
2022-11-12T02:43:50.426Z,1.80
2022-11-12T02:46:17.434Z,6.85
2022-11-12T02:48:44.579Z,2.97
2022-11-12T02:51:11.251Z,2.75
2022-11-12T02:53:37.888Z,4.43
2022-11-12T02:56:04.939Z,1.98
2022-11-12T02:58:31.751Z,4.65
2022-11-12T03:00:58.625Z,1.75
2022-11-12T03:03:25.351Z,2.10
2022-11-12T03:06:00.063Z,4.20
2022-11-12T03:08:27.650Z,2.60
2022-11-12T03:10:55.033Z,2.95
2022-11-12T03:13:21.813Z,2.35
2022-11-12T03:15:48.665Z,4.90
2022-11-12T03:18:15.560Z,3.78
2022-11-12T03:20:42.242Z,3.72
2022-11-12T03:23:11.209Z,3.72
2022-11-12T03:25:38.200Z,2.47
2022-11-12T03:28:08.910Z,2.42
2022-11-12T03:30:38.380Z,1.40
2022-11-12T03:33:06.212Z,2.22
2022-11-12T03:35:33.919Z,1.60
2022-11-12T03:38:01.325Z,3.47
2022-11-12T03:40:28.484Z,3.13
2022-11-12T03:42:55.254Z,2.13
2022-11-12T03:45:23.035Z,4.10
2022-11-12T03:47:52.025Z,1.80
2022-11-12T03:50:20.566Z,3.47
2022-11-12T03:52:48.402Z,3.45
2022-11-12T03:55:16.529Z,3.30
2022-11-12T03:57:44.716Z,3.42
2022-11-12T04:00:12.876Z,1.50
2022-11-12T04:02:39.485Z,4.45
2022-11-12T04:05:25.939Z,1.92
2022-11-12T04:08:25.377Z,1.60
2022-11-12T04:10:52.579Z,2.20
2022-11-12T04:13:28.313Z,1.77
2022-11-12T04:16:16.663Z,2.92
2022-11-12T04:19:03.050Z,1.85
2022-11-12T04:21:52.518Z,1.83
2022-11-12T04:24:45.314Z,1.80
2022-11-12T04:27:23.683Z,1.83
2022-11-12T04:30:10.114Z,4.38
2022-11-12T04:32:40.477Z,3.05
2022-11-12T04:35:08.757Z,3.17
2022-11-12T04:37:45.562Z,4.68
2022-11-12T04:40:39.769Z,6.93
2022-11-12T04:43:26.962Z,2.53
2022-11-12T04:45:54.443Z,2.53
2022-11-12T04:48:23.033Z,4.35
2022-11-12T04:50:59.989Z,2.60
2022-11-12T04:53:27.462Z,2.80
2022-11-12T04:55:56.153Z,3.13
2022-11-12T04:58:23.406Z,2.50
2022-11-12T05:00:50.931Z,2.50
2022-11-12T05:03:18.323Z,3.72
2022-11-12T05:05:45.002Z,7.82
2022-11-12T05:08:11.783Z,1.80
2022-11-12T05:10:38.536Z,2.55
2022-11-12T05:13:05.275Z,3.17
2022-11-12T05:15:31.893Z,2.47
2022-11-12T05:17:58.597Z,3.05
2022-11-12T05:20:25.318Z,4.65
2022-11-12T05:23:05.597Z,3.00
2022-11-12T05:25:33.636Z,3.80
2022-11-12T05:28:00.414Z,5.30
2022-11-12T05:30:27.098Z,5.90
2022-11-12T05:32:53.889Z,5.03
2022-11-12T05:35:20.530Z,3.28
2022-11-12T05:37:47.231Z,3.75
2022-11-12T05:40:14.068Z,3.53
2022-11-12T05:42:40.809Z,3.72
2022-11-12T05:45:08.364Z,5.53
2022-11-12T05:47:35.110Z,1.95
2022-11-12T05:50:01.843Z,3.25
2022-11-12T05:52:28.586Z,3.88
2022-11-12T05:54:57.849Z,2.60
2022-11-12T05:57:27.590Z,3.95
2022-11-12T05:59:54.340Z,2.92
2022-11-12T06:02:21.049Z,3.90
2022-11-12T06:04:47.720Z,3.38
2022-11-12T06:07:14.428Z,2.38
2022-11-12T06:09:41.156Z,2.45
2022-11-12T06:12:08.661Z,5.18
2022-11-12T06:14:35.511Z,2.95
2022-11-12T06:17:05.307Z,3.42
2022-11-12T06:19:31.951Z,3.63
2022-11-12T06:21:58.619Z,4.78
2022-11-12T06:24:27.544Z,4.60
2022-11-12T06:27:00.989Z,4.63
2022-11-12T06:29:28.180Z,2.33
2022-11-12T06:31:54.806Z,3.65
2022-11-12T06:34:21.913Z,5.43
2022-11-12T06:36:49.631Z,5.60
2022-11-12T06:39:16.373Z,4.63
2022-11-12T06:41:43.152Z,6.93
2022-11-12T06:44:09.929Z,8.25
2022-11-12T06:46:36.860Z,6.25
2022-11-12T06:49:03.778Z,3.85
2022-11-12T06:51:30.661Z,3.63
2022-11-12T06:53:57.370Z,5.35
2022-11-12T06:56:24.247Z,4.70
2022-11-12T06:58:50.958Z,6.57
2022-11-12T07:01:18.279Z,5.28
2022-11-12T07:03:45.628Z,4.28
2022-11-12T07:06:15.334Z,5.03
2022-11-12T07:08:42.691Z,4.55
2022-11-12T07:11:10.065Z,3.42
2022-11-12T07:13:37.708Z,3.72
2022-11-12T07:16:06.285Z,2.83
2022-11-12T07:18:34.150Z,2.90
2022-11-12T07:21:02.758Z,3.55
2022-11-12T07:23:31.602Z,2.58
2022-11-12T07:26:03.898Z,4.43
2022-11-12T07:28:31.166Z,4.65
2022-11-12T07:30:59.727Z,8.10
2022-11-12T07:33:27.289Z,7.07
2022-11-12T07:36:04.777Z,5.28
2022-11-12T07:38:33.783Z,5.10
2022-11-12T07:41:04.399Z,5.43
2022-11-12T07:43:31.975Z,6.63
2022-11-12T07:46:11.407Z,5.72
2022-11-12T07:48:38.972Z,5.60
2022-11-12T07:51:08.167Z,7.38
2022-11-12T07:53:35.135Z,4.32
2022-11-12T07:56:04.613Z,4.55
2022-11-12T07:58:33.116Z,5.97
2022-11-12T08:01:09.012Z,4.95
2022-11-12T08:03:35.902Z,4.82
2022-11-12T08:06:02.840Z,4.38
2022-11-12T08:08:30.098Z,8.38
2022-11-12T08:10:59.100Z,6.22
2022-11-12T08:13:26.131Z,4.65
2022-11-12T08:15:56.540Z,4.25
2022-11-12T08:18:25.883Z,8.73
2022-11-12T08:20:53.217Z,4.78
2022-11-12T08:23:20.059Z,3.88
2022-11-12T08:25:47.549Z,3.63
2022-11-12T08:28:16.933Z,4.35
2022-11-12T08:30:43.764Z,3.85
2022-11-12T08:33:10.494Z,3.38
2022-11-12T08:35:38.272Z,4.80
2022-11-12T08:38:07.767Z,7.93
2022-11-12T08:40:35.954Z,3.97
2022-11-12T08:43:08.953Z,5.20
2022-11-12T08:45:39.134Z,4.35
2022-11-12T08:48:08.741Z,4.30
2022-11-12T08:50:36.093Z,7.72
2022-11-12T08:53:10.849Z,7.10
2022-11-12T08:55:37.869Z,6.18
2022-11-12T08:58:06.193Z,7.22
2022-11-12T09:00:36.387Z,4.38
2022-11-12T09:03:04.725Z,5.95
2022-11-12T09:05:31.770Z,7.30
2022-11-12T09:08:03.893Z,7.10
2022-11-12T09:10:31.216Z,9.82
2022-11-12T09:12:58.026Z,6.88
2022-11-12T09:15:41.486Z,5.85
2022-11-12T09:18:12.201Z,9.68
2022-11-12T09:20:39.096Z,13.52
2022-11-12T09:23:11.352Z,10.10
2022-11-12T09:25:38.787Z,8.18
2022-11-12T09:28:09.933Z,7.88
2022-11-12T09:30:38.226Z,10.32
2022-11-12T09:33:05.197Z,18.67
2022-11-12T09:35:32.103Z,14.40
2022-11-12T09:37:59.766Z,12.40
2022-11-12T09:41:08.731Z,34.20
2022-11-12T09:43:40.750Z,16.75
2022-11-12T09:46:27.538Z,20.15
2022-11-12T09:49:03.185Z,19.75
2022-11-12T09:51:35.521Z,21.00
2022-11-12T09:54:18.515Z,22.23
2022-11-12T09:56:45.474Z,20.50
2022-11-12T09:59:13.652Z,22.65
2022-11-12T10:01:53.864Z,24.65
2022-11-12T10:04:58.132Z,21.17
2022-11-12T10:07:49.118Z,17.98
2022-11-12T10:10:18.622Z,18.15
2022-11-12T10:12:50.644Z,25.52
2022-11-12T10:15:51.480Z,21.88
2022-11-12T10:18:44.024Z,26.27
2022-11-12T10:21:31.309Z,27.52
2022-11-12T10:23:58.608Z,22.63
2022-11-12T10:26:26.810Z,22.63
2022-11-12T10:29:01.809Z,20.10
2022-11-12T10:31:28.659Z,22.17
2022-11-12T10:34:08.069Z,21.55
2022-11-12T10:36:36.467Z,19.83
2022-11-12T10:39:03.549Z,22.90
2022-11-12T10:41:34.526Z,21.25
2022-11-12T10:44:03.323Z,18.30
2022-11-12T10:46:35.615Z,17.70
2022-11-12T10:49:08.294Z,15.25
2022-11-12T10:51:37.220Z,18.30
2022-11-12T10:54:26.881Z,22.08
2022-11-12T10:56:55.621Z,17.08
2022-11-12T10:59:24.202Z,17.33
2022-11-12T11:01:56.725Z,15.73
2022-11-12T11:04:30.342Z,18.08
2022-11-12T11:07:07.798Z,14.00
2022-11-12T11:09:34.848Z,17.42
2022-11-12T11:12:01.767Z,18.80
2022-11-12T11:14:31.844Z,14.57
2022-11-12T11:17:08.732Z,13.63
2022-11-12T11:19:36.872Z,12.65
2022-11-12T11:22:26.584Z,12.95
2022-11-12T11:25:05.071Z,12.18
2022-11-12T11:27:40.595Z,12.35
2022-11-12T11:30:19.811Z,10.55
2022-11-12T11:32:55.480Z,13.32
2022-11-12T11:36:04.154Z,12.18
2022-11-12T11:38:49.629Z,15.00
2022-11-12T11:41:34.856Z,12.68
2022-11-12T11:44:25.750Z,13.60
2022-11-12T11:47:13.285Z,13.98
2022-11-12T11:49:58.454Z,11.88
2022-11-12T11:52:37.583Z,10.63
2022-11-12T11:55:19.200Z,11.00
2022-11-12T11:57:55.035Z,8.27
2022-11-12T12:00:23.944Z,12.35
2022-11-12T12:03:12.330Z,13.80
2022-11-12T12:05:48.023Z,24.85
2022-11-12T12:08:36.723Z,14.35
2022-11-12T12:11:11.820Z,18.08
2022-11-12T12:14:19.827Z,19.35
2022-11-12T12:17:08.333Z,16.10
2022-11-12T12:20:26.825Z,16.65
2022-11-12T12:22:58.138Z,15.13
2022-11-12T12:25:31.123Z,13.98
2022-11-12T12:28:16.638Z,15.00
2022-11-12T12:30:48.921Z,12.30
2022-11-12T12:33:32.750Z,17.17
2022-11-12T12:36:24.067Z,15.63
2022-11-12T12:38:55.721Z,13.45
2022-11-12T12:41:34.281Z,12.55
2022-11-12T12:44:06.302Z,19.40
2022-11-12T12:46:39.432Z,14.18
2022-11-12T12:49:07.683Z,14.63
2022-11-12T12:51:34.924Z,12.57
2022-11-12T12:54:01.969Z,14.02
2022-11-12T12:56:31.488Z,13.60
2022-11-12T12:59:03.824Z,20.98
2022-11-12T13:01:34.676Z,17.50
2022-11-12T13:04:04.492Z,14.93
2022-11-12T13:06:35.089Z,13.40
2022-11-12T13:09:24.264Z,12.70
2022-11-12T13:12:05.546Z,15.30
2022-11-12T13:14:34.936Z,13.48
2022-11-12T13:17:07.455Z,13.90
2022-11-12T13:20:10.439Z,12.98
2022-11-12T13:22:40.151Z,13.60
2022-11-12T13:25:12.431Z,12.23
2022-11-12T13:27:44.803Z,17.17
2022-11-12T13:30:14.298Z,16.73
2022-11-12T13:32:48.041Z,18.30
2022-11-12T13:35:22.575Z,15.52
2022-11-12T13:38:07.951Z,21.58
2022-11-12T13:40:43.544Z,16.80
2022-11-12T13:43:15.837Z,17.05
2022-11-12T13:45:51.052Z,16.98
2022-11-12T13:48:28.032Z,22.25
2022-11-12T13:51:01.321Z,13.65
2022-11-12T13:53:29.247Z,14.15
2022-11-12T13:55:56.126Z,15.27
2022-11-12T13:58:35.878Z,15.70
2022-11-12T14:01:04.332Z,17.98
2022-11-12T14:03:57.415Z,18.70
2022-11-12T14:06:37.930Z,15.43
2022-11-12T14:09:46.712Z,10.85
2022-11-12T14:12:34.764Z,13.23
2022-11-12T14:15:13.466Z,10.55
2022-11-12T14:17:51.894Z,14.40
2022-11-12T14:20:44.732Z,13.20
2022-11-12T14:23:21.587Z,15.15
2022-11-12T14:25:53.275Z,14.45
2022-11-12T14:28:36.596Z,11.05
2022-11-12T14:31:04.477Z,14.80
2022-11-12T14:33:32.438Z,13.52
2022-11-12T14:36:02.209Z,10.85
2022-11-12T14:38:49.777Z,14.07
2022-11-12T14:41:30.519Z,16.45
2022-11-12T14:44:12.593Z,13.65
2022-11-12T14:46:48.338Z,17.60
2022-11-12T14:49:38.343Z,18.38
2022-11-12T14:52:22.307Z,15.95
2022-11-12T14:54:51.604Z,13.63
2022-11-12T14:57:25.207Z,15.27
2022-11-12T14:59:51.871Z,14.38
2022-11-12T15:02:39.057Z,13.98
2022-11-12T15:05:21.006Z,16.02
2022-11-12T15:07:57.426Z,14.93
2022-11-12T15:10:41.095Z,18.40
2022-11-12T15:13:21.766Z,16.80
2022-11-12T15:15:55.332Z,10.80
2022-11-12T15:18:25.057Z,16.40
2022-11-12T15:21:08.161Z,16.40
2022-11-12T15:23:35.178Z,17.73
2022-11-12T15:26:02.017Z,16.20
2022-11-12T15:28:28.859Z,21.45
2022-11-12T15:31:21.033Z,18.02
2022-11-12T15:33:47.799Z,14.10
2022-11-12T15:36:19.055Z,20.77
2022-11-12T15:38:53.228Z,16.65
2022-11-12T15:41:30.122Z,17.10
2022-11-12T15:43:57.193Z,16.63
2022-11-12T15:46:23.820Z,19.92
2022-11-12T15:48:55.757Z,14.50
2022-11-12T15:51:23.216Z,19.50
2022-11-12T15:53:49.902Z,19.65
2022-11-12T15:56:18.196Z,14.57
2022-11-12T15:58:45.186Z,17.02
2022-11-12T16:01:12.642Z,13.07
2022-11-12T16:03:39.440Z,16.98
2022-11-12T16:06:09.299Z,15.60
2022-11-12T16:08:36.273Z,18.25
2022-11-12T16:11:03.181Z,18.65
2022-11-12T16:13:32.277Z,15.20
2022-11-12T16:15:59.635Z,16.17
2022-11-12T16:18:26.327Z,14.95
2022-11-12T16:20:53.317Z,16.50
2022-11-12T16:23:20.017Z,19.10
2022-11-12T16:25:47.065Z,14.02
2022-11-12T16:28:15.853Z,17.80
2022-11-12T16:30:43.234Z,14.15
2022-11-12T16:33:11.333Z,20.98
2022-11-12T16:35:38.221Z,17.58
2022-11-12T16:38:12.745Z,15.40
2022-11-12T16:40:40.337Z,15.85
2022-11-12T16:43:07.158Z,20.17
2022-11-12T16:45:36.180Z,21.30
2022-11-12T16:48:10.767Z,17.67
2022-11-12T16:50:37.438Z,22.88
2022-11-12T16:53:04.099Z,22.48
2022-11-12T16:55:31.780Z,19.40
2022-11-12T16:57:58.341Z,20.05
2022-11-12T17:00:25.076Z,22.40
2022-11-12T17:02:53.555Z,17.08
2022-11-12T17:05:23.150Z,18.90
2022-11-12T17:07:50.667Z,25.20
2022-11-12T17:10:17.676Z,18.98
2022-11-12T17:12:48.744Z,21.30
2022-11-12T17:15:15.495Z,25.10
2022-11-12T17:17:42.607Z,18.33
2022-11-12T17:20:10.092Z,21.25
2022-11-12T17:22:37.218Z,21.88
2022-11-12T17:25:04.466Z,21.65
2022-11-12T17:27:31.167Z,20.17
2022-11-12T17:29:57.899Z,26.92
2022-11-12T17:32:24.856Z,20.30
2022-11-12T17:34:51.458Z,23.35
2022-11-12T17:37:18.063Z,16.48
2022-11-12T17:39:44.759Z,22.83
2022-11-12T17:42:11.385Z,24.13
2022-11-12T17:44:38.072Z,21.85
2022-11-12T17:47:04.872Z,26.33
2022-11-12T17:49:31.570Z,24.17
2022-11-12T17:51:58.301Z,21.63
2022-11-12T17:54:27.627Z,27.73
2022-11-12T17:56:54.387Z,24.73
2022-11-12T17:59:21.093Z,22.60
2022-11-12T18:01:47.732Z,22.50
2022-11-12T18:04:15.593Z,23.15
2022-11-12T18:06:42.366Z,21.48
2022-11-12T18:09:16.591Z,23.67
2022-11-12T18:11:49.845Z,20.10
2022-11-12T18:14:17.106Z,24.33
2022-11-12T18:16:44.052Z,25.15
2022-11-12T18:19:11.369Z,25.75
2022-11-12T18:21:41.212Z,24.75
2022-11-12T18:24:13.385Z,22.80
2022-11-12T18:26:40.116Z,20.80
2022-11-12T18:29:08.023Z,24.10
2022-11-12T18:31:34.832Z,23.85
2022-11-12T18:34:01.517Z,23.17
2022-11-12T18:36:28.713Z,23.65
2022-11-12T18:38:55.902Z,27.40
2022-11-12T18:41:26.043Z,29.02
2022-11-12T18:43:56.630Z,27.02
2022-11-12T18:46:23.865Z,27.92
2022-11-12T18:48:50.941Z,26.85
2022-11-12T18:51:18.984Z,31.70
2022-11-12T18:53:46.337Z,24.77
2022-11-12T18:56:17.783Z,30.33
2022-11-12T18:58:44.535Z,27.80
2022-11-12T19:01:16.199Z,28.55
2022-11-12T19:03:43.183Z,31.50
2022-11-12T19:06:12.589Z,31.52
2022-11-12T19:08:39.680Z,33.85
2022-11-12T19:11:08.778Z,28.27
2022-11-12T19:13:39.103Z,31.33
2022-11-12T19:16:14.170Z,29.60
2022-11-12T19:18:42.206Z,29.60
2022-11-12T19:21:11.127Z,29.55
2022-11-12T19:23:38.556Z,25.63
2022-11-12T19:26:07.150Z,31.25
2022-11-12T19:28:35.416Z,31.92
2022-11-12T19:31:13.127Z,32.55
2022-11-12T19:33:42.417Z,34.10
2022-11-12T19:36:11.298Z,31.65
2022-11-12T19:38:38.211Z,31.52
2022-11-12T19:41:08.106Z,33.65
2022-11-12T19:43:34.800Z,27.77
2022-11-12T19:46:01.964Z,31.10
2022-11-12T19:48:29.217Z,31.85
2022-11-12T19:51:01.214Z,25.45
2022-11-12T19:53:38.704Z,31.45
2022-11-12T19:56:06.765Z,26.10
2022-11-12T19:58:34.360Z,31.70
2022-11-12T20:01:09.651Z,32.10
2022-11-12T20:03:37.392Z,36.25
2022-11-12T20:06:06.211Z,31.77
2022-11-12T20:08:33.356Z,31.10
2022-11-12T20:11:03.149Z,31.70
2022-11-12T20:13:30.195Z,29.73
2022-11-12T20:15:57.054Z,31.17
2022-11-12T20:18:24.359Z,28.90
2022-11-12T20:20:53.824Z,33.00
2022-11-12T20:23:21.035Z,29.02
2022-11-12T20:25:47.834Z,31.10
2022-11-12T20:28:14.535Z,33.50
2022-11-12T20:30:41.315Z,32.72
2022-11-12T20:33:08.124Z,25.48
2022-11-12T20:35:37.843Z,34.90
2022-11-12T20:38:05.066Z,28.90
2022-11-12T20:40:32.735Z,29.55
2022-11-12T20:42:59.580Z,34.60
2022-11-12T20:45:27.348Z,29.95
2022-11-12T20:47:56.280Z,31.50
2022-11-12T20:50:23.482Z,30.33
2022-11-12T20:52:50.333Z,28.88
2022-11-12T20:55:17.377Z,28.27
2022-11-12T20:57:44.234Z,32.05
2022-11-12T21:00:14.134Z,29.08
2022-11-12T21:02:43.436Z,32.05
2022-11-12T21:05:10.183Z,29.27
2022-11-12T21:07:39.583Z,30.88
2022-11-12T21:10:06.775Z,30.83
2022-11-12T21:12:33.775Z,39.40
2022-11-12T21:15:00.616Z,24.25
2022-11-12T21:17:27.355Z,32.90
2022-11-12T21:19:56.458Z,30.63
2022-11-12T21:22:23.393Z,27.02
2022-11-12T21:24:50.156Z,33.33
2022-11-12T21:27:17.077Z,29.52
2022-11-12T21:29:44.135Z,29.48
2022-11-12T21:32:10.977Z,37.22
2022-11-12T21:34:37.607Z,34.67
2022-11-12T21:37:04.360Z,32.55
2022-11-12T21:39:30.992Z,25.52
2022-11-12T21:41:57.831Z,32.38
2022-11-12T21:44:24.568Z,32.25
2022-11-12T21:46:51.207Z,30.92
2022-11-12T21:49:17.948Z,31.67
2022-11-12T21:51:44.680Z,34.80
2022-11-12T21:54:12.446Z,39.88
2022-11-12T21:56:40.325Z,39.47
2022-11-12T21:59:07.143Z,29.10
2022-11-12T22:01:34.662Z,34.72
2022-11-12T22:04:06.048Z,32.47
2022-11-12T22:06:36.518Z,28.60
2022-11-12T22:09:03.855Z,31.50
2022-11-12T22:11:31.109Z,28.85
2022-11-12T22:13:57.761Z,28.13
2022-11-12T22:16:27.272Z,28.88
2022-11-12T22:18:55.648Z,27.75
2022-11-12T22:21:24.575Z,28.15
2022-11-12T22:23:51.370Z,29.48
2022-11-12T22:26:25.380Z,26.48
2022-11-12T22:28:53.113Z,28.33
2022-11-12T22:31:24.540Z,29.42
2022-11-12T22:33:51.488Z,26.92
2022-11-12T22:36:23.242Z,27.58
2022-11-12T22:38:52.497Z,27.45
2022-11-12T22:41:21.230Z,24.77
2022-11-12T22:43:49.092Z,25.88
2022-11-12T22:46:18.162Z,23.23
2022-11-12T22:48:45.184Z,24.40
2022-11-12T22:51:22.893Z,22.58
2022-11-12T22:54:03.215Z,26.15
2022-11-12T22:56:30.155Z,24.55
2022-11-12T22:58:58.167Z,24.63
2022-11-12T23:01:35.691Z,23.85
2022-11-12T23:04:05.153Z,26.05
2022-11-12T23:06:32.075Z,27.17
2022-11-12T23:08:59.469Z,24.65
2022-11-12T23:11:26.474Z,26.75
2022-11-12T23:13:54.484Z,25.63
2022-11-12T23:16:24.357Z,26.80
2022-11-12T23:18:52.408Z,27.88
2022-11-12T23:21:22.056Z,30.67
2022-11-12T23:23:48.830Z,28.05
2022-11-12T23:26:21.438Z,36.10
2022-11-12T23:28:48.333Z,31.98
2022-11-12T23:31:17.650Z,34.17
2022-11-12T23:33:57.554Z,30.15
2022-11-12T23:36:25.470Z,29.67
2022-11-12T23:38:52.260Z,26.23
2022-11-12T23:41:23.010Z,26.38
2022-11-12T23:43:50.360Z,27.15
2022-11-12T23:46:17.236Z,28.92
2022-11-12T23:48:44.024Z,27.58
2022-11-12T23:51:13.076Z,25.00
2022-11-12T23:53:40.245Z,21.20
2022-11-12T23:56:09.524Z,22.45
2022-11-12T23:58:37.474Z,25.80
